Granite Falls, WA

11:26 AM PST on December 09, 2016 (GMT -0800)
South Granite | | Change Station
Active Advisory: Winter Weather Advisory Active Notice: Public Information Statement

Elev 416 ft 48.07 °N, 121.96 °W | Updated 26 seconds ago

Snow
Snow
32.6 °F
Feels Like 33 °F
N
2.0
Wind Variable Wind from ESE

Today
High -- | Low -- °F
--% Chance of Precip.
Yesterday
High -- | Low -- °F
Precip. -- in
Pressure 30.00 in
Visibility 3.0 miles
Clouds Overcast 2000 ft
Windchill 33 °F
Dew Point 32 °F
Humidity 98%
Rainfall 0.00 in
Snow Depth Not available.
7:46 AM 4:14 PM
Waxing Gibbous, 76% visible
METAR KAWO 091915Z AUTO 00000KT 3SM OVC020 00/M03 A3000 RMK AO1
Pressure 30.00 in
Visibility 3.0 miles
Clouds Overcast 2000 ft
Windchill 33 °F
Dew Point 32 °F
Humidity 98%
Rainfall 0.00 in
Snow Depth Not available.
7:46 AM 4:14 PM
Waxing Gibbous, 76% visible
METAR KAWO 091915Z AUTO 00000KT 3SM OVC020 00/M03 A3000 RMK AO1

10-Day Weather Forecast

Almanac

Astronomy

Dec. 09, 2016 Rise Set
Actual Time
Civil Twilight
Nautical Twilight
Astronomical Twilight
Moon
Length of Visible Light
Length of Day
Tomorrow will be .
, % of the Moon is Illuminated

Today's Extremes

State Highs State Lows

Community

WunderPhotos

Upload Photos

1,956,499 photos uploaded!

WunderBlog® & News

Nearby

Air Quality

  Air Quality AQ Index Pollutant
Not available.

Snow Depth

Station Depth Elevation

Earthquake Activity

City Distance Mag. Time & Date
Minimum magnitude displayed is 2.5.

Coastal Water Temperatures

Place Temperature

Stations

Nearby Weather Stations

Station Location Temp. Windchill Dew Point Humidity Wind Precip. Elev Updated Type
                   

Watches & Warnings

Winter Weather Advisory
Issued: 10:05 AM PST Dec. 9, 2016 – National Weather Service

... Winter Weather Advisory in effect until 4 PM PST this afternoon...

The National Weather Service in Seattle has issued a Winter Weather
Advisory for snow and freezing rain... which is in effect until 4
PM PST this afternoon.

* Timing... mainly through 1 PM this afternoon... but locations like
North Bend... Gold Bar... Darrington and Concrete could still see
snow and possibly brief freezing rain through this afternoon.

* Accumulation... up to an additional 2 inches of snow with local 3
inch accumulations is possible through this evening.

* Impacts... slippery roads that will make travel difficult.

Precautionary/preparedness actions...

A Winter Weather Advisory means that periods of snow or freezing
rain will cause travel difficulties. Be prepared for slippery
roads and limited visibilities, and use caution while driving.